sensor_id;sensor_type;location;lat;lon;timestamp;P1;durP1;ratioP1;P2;durP2;ratioP2
20861;SDS011;10591;52.532;13.348;2023-07-24T00:01:17;6.35;;;4.05;;
20861;SDS011;10591;52.532;13.348;2023-07-24T00:03:47;5.40;;;4.70;;
20861;SDS011;10591;52.532;13.348;2023-07-24T00:06:18;5.25;;;4.03;;
20861;SDS011;10591;52.532;13.348;2023-07-24T00:08:50;5.03;;;3.45;;
20861;SDS011;10591;52.532;13.348;2023-07-24T00:11:23;7.03;;;4.85;;
20861;SDS011;10591;52.532;13.348;2023-07-24T00:13:54;4.80;;;4.37;;
20861;SDS011;10591;52.532;13.348;2023-07-24T00:16:25;4.12;;;3.62;;
20861;SDS011;10591;52.532;13.348;2023-07-24T00:18:56;4.92;;;4.28;;
20861;SDS011;10591;52.532;13.348;2023-07-24T00:21:27;4.12;;;3.60;;
20861;SDS011;10591;52.532;13.348;2023-07-24T00:23:57;4.00;;;3.62;;
20861;SDS011;10591;52.532;13.348;2023-07-24T00:26:28;7.00;;;6.35;;
20861;SDS011;10591;52.532;13.348;2023-07-24T00:29:00;4.70;;;3.95;;
20861;SDS011;10591;52.532;13.348;2023-07-24T00:31:33;3.87;;;3.25;;
20861;SDS011;10591;52.532;13.348;2023-07-24T00:34:03;3.77;;;3.37;;
20861;SDS011;10591;52.532;13.348;2023-07-24T00:36:34;4.00;;;3.60;;
20861;SDS011;10591;52.532;13.348;2023-07-24T00:39:05;4.03;;;3.62;;
20861;SDS011;10591;52.532;13.348;2023-07-24T00:41:36;4.03;;;3.60;;
20861;SDS011;10591;52.532;13.348;2023-07-24T00:44:06;3.60;;;3.30;;
20861;SDS011;10591;52.532;13.348;2023-07-24T00:46:37;3.87;;;3.40;;
20861;SDS011;10591;52.532;13.348;2023-07-24T00:49:08;4.72;;;3.85;;
20861;SDS011;10591;52.532;13.348;2023-07-24T00:51:39;4.65;;;4.15;;
20861;SDS011;10591;52.532;13.348;2023-07-24T00:54:10;5.58;;;3.98;;
20861;SDS011;10591;52.532;13.348;2023-07-24T00:56:43;10.95;;;3.80;;
20861;SDS011;10591;52.532;13.348;2023-07-24T00:59:17;3.67;;;3.30;;
20861;SDS011;10591;52.532;13.348;2023-07-24T01:01:47;4.03;;;3.37;;
20861;SDS011;10591;52.532;13.348;2023-07-24T01:04:18;3.95;;;3.45;;
20861;SDS011;10591;52.532;13.348;2023-07-24T01:06:49;4.60;;;3.80;;
20861;SDS011;10591;52.532;13.348;2023-07-24T01:09:23;4.70;;;4.20;;
20861;SDS011;10591;52.532;13.348;2023-07-24T01:11:56;5.78;;;4.60;;
20861;SDS011;10591;52.532;13.348;2023-07-24T01:14:36;4.10;;;3.67;;
20861;SDS011;10591;52.532;13.348;2023-07-24T01:17:09;4.53;;;3.55;;
20861;SDS011;10591;52.532;13.348;2023-07-24T01:19:49;4.97;;;4.47;;
20861;SDS011;10591;52.532;13.348;2023-07-24T01:28:07;4.60;;;3.72;;
20861;SDS011;10591;52.532;13.348;2023-07-24T01:30:38;4.65;;;4.15;;
20861;SDS011;10591;52.532;13.348;2023-07-24T01:33:09;4.37;;;3.90;;
20861;SDS011;10591;52.532;13.348;2023-07-24T01:35:39;6.95;;;5.30;;
20861;SDS011;10591;52.532;13.348;2023-07-24T01:38:14;4.17;;;3.52;;
20861;SDS011;10591;52.532;13.348;2023-07-24T01:40:46;3.67;;;3.27;;
20861;SDS011;10591;52.532;13.348;2023-07-24T01:43:18;3.60;;;3.30;;
20861;SDS011;10591;52.532;13.348;2023-07-24T01:45:48;5.67;;;3.02;;
20861;SDS011;10591;52.532;13.348;2023-07-24T01:48:22;4.58;;;2.90;;
20861;SDS011;10591;52.532;13.348;2023-07-24T01:50:52;3.47;;;3.17;;
20861;SDS011;10591;52.532;13.348;2023-07-24T01:53:23;3.58;;;3.20;;
20861;SDS011;10591;52.532;13.348;2023-07-24T01:55:54;3.80;;;3.20;;
20861;SDS011;10591;52.532;13.348;2023-07-24T01:58:27;3.45;;;3.15;;
20861;SDS011;10591;52.532;13.348;2023-07-24T02:00:58;3.27;;;2.98;;
20861;SDS011;10591;52.532;13.348;2023-07-24T02:03:29;3.75;;;3.08;;
20861;SDS011;10591;52.532;13.348;2023-07-24T02:06:00;4.67;;;3.05;;
20861;SDS011;10591;52.532;13.348;2023-07-24T02:08:30;3.15;;;2.87;;
20861;SDS011;10591;52.532;13.348;2023-07-24T02:11:01;6.80;;;3.42;;
20861;SDS011;10591;52.532;13.348;2023-07-24T02:13:31;3.08;;;2.70;;
20861;SDS011;10591;52.532;13.348;2023-07-24T02:16:02;3.42;;;3.12;;
20861;SDS011;10591;52.532;13.348;2023-07-24T02:18:32;3.70;;;3.40;;
20861;SDS011;10591;52.532;13.348;2023-07-24T02:21:03;3.67;;;3.00;;
20861;SDS011;10591;52.532;13.348;2023-07-24T02:23:34;3.40;;;3.10;;
20861;SDS011;10591;52.532;13.348;2023-07-24T02:26:08;4.37;;;3.42;;
20861;SDS011;10591;52.532;13.348;2023-07-24T02:28:39;3.92;;;3.12;;
20861;SDS011;10591;52.532;13.348;2023-07-24T02:31:10;5.75;;;3.37;;
20861;SDS011;10591;52.532;13.348;2023-07-24T02:33:41;3.80;;;3.40;;
20861;SDS011;10591;52.532;13.348;2023-07-24T02:36:12;3.72;;;3.20;;
20861;SDS011;10591;52.532;13.348;2023-07-24T02:38:44;5.30;;;3.52;;
20861;SDS011;10591;52.532;13.348;2023-07-24T02:41:15;4.80;;;3.62;;
20861;SDS011;10591;52.532;13.348;2023-07-24T02:43:47;3.62;;;3.33;;
20861;SDS011;10591;52.532;13.348;2023-07-24T02:46:18;4.53;;;3.12;;
20861;SDS011;10591;52.532;13.348;2023-07-24T02:48:48;3.70;;;3.40;;
20861;SDS011;10591;52.532;13.348;2023-07-24T02:51:19;3.80;;;3.20;;
20861;SDS011;10591;52.532;13.348;2023-07-24T02:53:50;4.92;;;2.95;;
20861;SDS011;10591;52.532;13.348;2023-07-24T02:56:23;3.55;;;3.10;;
20861;SDS011;10591;52.532;13.348;2023-07-24T02:58:54;3.65;;;2.80;;
20861;SDS011;10591;52.532;13.348;2023-07-24T03:01:25;3.40;;;2.90;;
20861;SDS011;10591;52.532;13.348;2023-07-24T03:03:55;3.10;;;2.80;;
20861;SDS011;10591;52.532;13.348;2023-07-24T03:06:26;3.05;;;2.75;;
20861;SDS011;10591;52.532;13.348;2023-07-24T03:08:57;3.40;;;3.10;;
20861;SDS011;10591;52.532;13.348;2023-07-24T03:11:29;4.00;;;3.10;;
20861;SDS011;10591;52.532;13.348;2023-07-24T03:14:01;3.95;;;3.08;;
20861;SDS011;10591;52.532;13.348;2023-07-24T03:16:34;5.28;;;3.27;;
20861;SDS011;10591;52.532;13.348;2023-07-24T03:19:05;3.80;;;3.00;;
20861;SDS011;10591;52.532;13.348;2023-07-24T03:21:36;3.67;;;2.80;;
20861;SDS011;10591;52.532;13.348;2023-07-24T03:24:08;3.40;;;2.80;;
20861;SDS011;10591;52.532;13.348;2023-07-24T03:26:40;4.55;;;2.77;;
20861;SDS011;10591;52.532;13.348;2023-07-24T03:29:12;4.08;;;2.80;;
20861;SDS011;10591;52.532;13.348;2023-07-24T03:31:43;3.72;;;2.95;;
20861;SDS011;10591;52.532;13.348;2023-07-24T03:34:16;3.27;;;2.70;;
20861;SDS011;10591;52.532;13.348;2023-07-24T03:36:47;3.10;;;2.80;;
20861;SDS011;10591;52.532;13.348;2023-07-24T03:39:18;3.85;;;2.80;;
20861;SDS011;10591;52.532;13.348;2023-07-24T03:41:49;4.53;;;2.90;;
20861;SDS011;10591;52.532;13.348;2023-07-24T03:44:20;3.08;;;2.77;;
20861;SDS011;10591;52.532;13.348;2023-07-24T03:46:52;4.05;;;2.83;;
20861;SDS011;10591;52.532;13.348;2023-07-24T03:49:23;2.90;;;2.60;;
20861;SDS011;10591;52.532;13.348;2023-07-24T03:51:54;3.00;;;2.50;;
20861;SDS011;10591;52.532;13.348;2023-07-24T03:54:25;3.08;;;2.60;;
20861;SDS011;10591;52.532;13.348;2023-07-24T03:56:56;3.40;;;3.05;;
20861;SDS011;10591;52.532;13.348;2023-07-24T03:59:27;2.60;;;2.30;;
20861;SDS011;10591;52.532;13.348;2023-07-24T04:01:58;2.87;;;2.67;;
20861;SDS011;10591;52.532;13.348;2023-07-24T04:04:29;3.12;;;2.45;;
20861;SDS011;10591;52.532;13.348;2023-07-24T04:07:00;3.25;;;2.62;;
20861;SDS011;10591;52.532;13.348;2023-07-24T04:09:31;3.10;;;2.35;;
20861;SDS011;10591;52.532;13.348;2023-07-24T04:12:02;3.55;;;2.72;;
20861;SDS011;10591;52.532;13.348;2023-07-24T04:14:33;2.65;;;2.27;;
20861;SDS011;10591;52.532;13.348;2023-07-24T04:17:06;2.67;;;2.47;;
20861;SDS011;10591;52.532;13.348;2023-07-24T04:19:37;3.10;;;2.30;;
20861;SDS011;10591;52.532;13.348;2023-07-24T04:22:10;2.55;;;2.35;;
20861;SDS011;10591;52.532;13.348;2023-07-24T04:24:41;4.33;;;2.60;;
20861;SDS011;10591;52.532;13.348;2023-07-24T04:27:12;3.90;;;2.20;;
20861;SDS011;10591;52.532;13.348;2023-07-24T04:29:45;2.90;;;2.70;;
20861;SDS011;10591;52.532;13.348;2023-07-24T04:32:20;2.20;;;2.00;;
20861;SDS011;10591;52.532;13.348;2023-07-24T04:34:50;4.22;;;3.02;;
20861;SDS011;10591;52.532;13.348;2023-07-24T04:37:21;2.83;;;2.30;;
20861;SDS011;10591;52.532;13.348;2023-07-24T04:39:51;2.37;;;2.17;;
20861;SDS011;10591;52.532;13.348;2023-07-24T04:42:22;3.37;;;2.33;;
20861;SDS011;10591;52.532;13.348;2023-07-24T04:44:52;2.12;;;1.98;;
20861;SDS011;10591;52.532;13.348;2023-07-24T04:47:23;2.90;;;2.20;;
20861;SDS011;10591;52.532;13.348;2023-07-24T04:49:54;4.17;;;2.65;;
20861;SDS011;10591;52.532;13.348;2023-07-24T04:52:24;2.20;;;1.92;;
20861;SDS011;10591;52.532;13.348;2023-07-24T04:54:56;2.00;;;1.77;;
20861;SDS011;10591;52.532;13.348;2023-07-24T04:57:26;2.33;;;2.12;;
20861;SDS011;10591;52.532;13.348;2023-07-24T04:59:57;2.22;;;1.95;;
20861;SDS011;10591;52.532;13.348;2023-07-24T05:02:28;2.20;;;2.00;;
20861;SDS011;10591;52.532;13.348;2023-07-24T05:04:58;4.33;;;2.00;;
20861;SDS011;10591;52.532;13.348;2023-07-24T05:07:31;2.27;;;2.08;;
20861;SDS011;10591;52.532;13.348;2023-07-24T05:10:01;2.55;;;2.27;;
20861;SDS011;10591;52.532;13.348;2023-07-24T05:12:33;2.77;;;2.08;;
20861;SDS011;10591;52.532;13.348;2023-07-24T05:15:04;2.80;;;2.08;;
20861;SDS011;10591;52.532;13.348;2023-07-24T05:17:35;3.80;;;2.10;;
20861;SDS011;10591;52.532;13.348;2023-07-24T05:20:08;2.72;;;1.80;;
20861;SDS011;10591;52.532;13.348;2023-07-24T05:22:39;2.30;;;1.87;;
20861;SDS011;10591;52.532;13.348;2023-07-24T05:25:10;2.60;;;1.70;;
20861;SDS011;10591;52.532;13.348;2023-07-24T05:27:41;2.27;;;1.90;;
20861;SDS011;10591;52.532;13.348;2023-07-24T05:30:14;1.82;;;1.70;;
20861;SDS011;10591;52.532;13.348;2023-07-24T05:32:45;2.33;;;1.72;;
20861;SDS011;10591;52.532;13.348;2023-07-24T05:35:17;1.67;;;1.57;;
20861;SDS011;10591;52.532;13.348;2023-07-24T05:37:49;1.80;;;1.70;;
20861;SDS011;10591;52.532;13.348;2023-07-24T05:40:20;1.92;;;1.82;;
20861;SDS011;10591;52.532;13.348;2023-07-24T05:42:51;2.05;;;1.85;;
20861;SDS011;10591;52.532;13.348;2023-07-24T05:45:23;2.20;;;2.10;;
20861;SDS011;10591;52.532;13.348;2023-07-24T05:47:53;2.27;;;2.12;;
20861;SDS011;10591;52.532;13.348;2023-07-24T05:50:26;3.02;;;1.95;;
20861;SDS011;10591;52.532;13.348;2023-07-24T05:52:58;3.10;;;2.20;;
20861;SDS011;10591;52.532;13.348;2023-07-24T05:55:30;2.20;;;2.00;;
20861;SDS011;10591;52.532;13.348;2023-07-24T05:58:00;2.12;;;2.00;;
20861;SDS011;10591;52.532;13.348;2023-07-24T06:00:31;2.00;;;1.80;;
20861;SDS011;10591;52.532;13.348;2023-07-24T06:03:07;2.58;;;1.87;;
20861;SDS011;10591;52.532;13.348;2023-07-24T06:05:35;1.90;;;1.80;;
20861;SDS011;10591;52.532;13.348;2023-07-24T06:08:06;1.92;;;1.72;;
20861;SDS011;10591;52.532;13.348;2023-07-24T06:10:38;2.42;;;2.00;;
20861;SDS011;10591;52.532;13.348;2023-07-24T06:13:10;2.30;;;2.10;;
20861;SDS011;10591;52.532;13.348;2023-07-24T06:15:41;2.95;;;2.30;;
20861;SDS011;10591;52.532;13.348;2023-07-24T06:18:15;2.30;;;2.10;;
20861;SDS011;10591;52.532;13.348;2023-07-24T06:20:47;2.67;;;2.30;;
20861;SDS011;10591;52.532;13.348;2023-07-24T06:23:19;3.00;;;2.25;;
20861;SDS011;10591;52.532;13.348;2023-07-24T06:25:51;1.95;;;1.85;;
20861;SDS011;10591;52.532;13.348;2023-07-24T06:28:23;2.72;;;2.40;;
20861;SDS011;10591;52.532;13.348;2023-07-24T06:30:53;3.17;;;2.30;;
20861;SDS011;10591;52.532;13.348;2023-07-24T06:33:24;2.85;;;2.52;;
20861;SDS011;10591;52.532;13.348;2023-07-24T06:35:55;3.58;;;2.20;;
20861;SDS011;10591;52.532;13.348;2023-07-24T06:38:26;2.30;;;2.10;;
20861;SDS011;10591;52.532;13.348;2023-07-24T06:40:57;2.75;;;2.17;;
20861;SDS011;10591;52.532;13.348;2023-07-24T06:43:29;2.40;;;2.20;;
20861;SDS011;10591;52.532;13.348;2023-07-24T06:45:59;2.27;;;2.10;;
20861;SDS011;10591;52.532;13.348;2023-07-24T06:48:30;2.30;;;2.20;;
20861;SDS011;10591;52.532;13.348;2023-07-24T06:51:01;2.10;;;2.00;;
20861;SDS011;10591;52.532;13.348;2023-07-24T06:53:33;2.65;;;2.42;;
20861;SDS011;10591;52.532;13.348;2023-07-24T06:56:04;2.47;;;2.15;;
20861;SDS011;10591;52.532;13.348;2023-07-24T06:58:36;3.00;;;2.50;;
20861;SDS011;10591;52.532;13.348;2023-07-24T07:01:07;2.62;;;2.42;;
20861;SDS011;10591;52.532;13.348;2023-07-24T07:03:38;2.75;;;2.55;;
20861;SDS011;10591;52.532;13.348;2023-07-24T07:06:08;2.72;;;2.52;;
20861;SDS011;10591;52.532;13.348;2023-07-24T07:08:42;2.80;;;2.60;;
20861;SDS011;10591;52.532;13.348;2023-07-24T07:11:13;2.75;;;2.55;;
20861;SDS011;10591;52.532;13.348;2023-07-24T07:13:43;2.85;;;2.60;;
20861;SDS011;10591;52.532;13.348;2023-07-24T07:16:14;2.80;;;2.60;;
20861;SDS011;10591;52.532;13.348;2023-07-24T07:18:47;5.40;;;3.17;;
20861;SDS011;10591;52.532;13.348;2023-07-24T07:21:17;3.20;;;2.90;;
20861;SDS011;10591;52.532;13.348;2023-07-24T07:23:48;4.58;;;3.22;;
20861;SDS011;10591;52.532;13.348;2023-07-24T07:26:19;7.55;;;3.55;;
20861;SDS011;10591;52.532;13.348;2023-07-24T07:28:51;4.17;;;2.75;;
20861;SDS011;10591;52.532;13.348;2023-07-24T07:31:22;6.10;;;2.92;;
20861;SDS011;10591;52.532;13.348;2023-07-24T07:33:53;3.47;;;2.42;;
20861;SDS011;10591;52.532;13.348;2023-07-24T07:36:25;3.33;;;3.02;;
20861;SDS011;10591;52.532;13.348;2023-07-24T07:38:59;5.65;;;3.33;;
20861;SDS011;10591;52.532;13.348;2023-07-24T07:41:31;5.83;;;3.40;;
20861;SDS011;10591;52.532;13.348;2023-07-24T07:44:03;4.12;;;2.80;;
20861;SDS011;10591;52.532;13.348;2023-07-24T07:46:33;3.30;;;3.00;;
20861;SDS011;10591;52.532;13.348;2023-07-24T07:49:04;3.17;;;2.87;;
20861;SDS011;10591;52.532;13.348;2023-07-24T07:51:35;3.05;;;2.67;;
20861;SDS011;10591;52.532;13.348;2023-07-24T07:54:07;3.17;;;2.87;;
20861;SDS011;10591;52.532;13.348;2023-07-24T07:56:38;3.22;;;2.92;;
20861;SDS011;10591;52.532;13.348;2023-07-24T07:59:08;3.15;;;2.85;;
20861;SDS011;10591;52.532;13.348;2023-07-24T08:01:39;2.80;;;2.60;;
20861;SDS011;10591;52.532;13.348;2023-07-24T08:04:11;2.67;;;2.47;;
20861;SDS011;10591;52.532;13.348;2023-07-24T08:06:42;3.27;;;2.27;;
20861;SDS011;10591;52.532;13.348;2023-07-24T08:09:13;2.90;;;2.70;;
20861;SDS011;10591;52.532;13.348;2023-07-24T08:11:47;3.17;;;2.27;;
20861;SDS011;10591;52.532;13.348;2023-07-24T08:14:20;2.60;;;2.40;;
20861;SDS011;10591;52.532;13.348;2023-07-24T08:16:51;2.40;;;2.20;;
20861;SDS011;10591;52.532;13.348;2023-07-24T08:19:24;2.72;;;2.52;;
20861;SDS011;10591;52.532;13.348;2023-07-24T08:22:02;2.52;;;2.33;;
20861;SDS011;10591;52.532;13.348;2023-07-24T08:24:35;2.50;;;2.30;;
20861;SDS011;10591;52.532;13.348;2023-07-24T08:27:06;2.20;;;2.10;;
20861;SDS011;10591;52.532;13.348;2023-07-24T08:29:38;3.80;;;2.50;;
20861;SDS011;10591;52.532;13.348;2023-07-24T08:32:08;8.25;;;3.08;;
20861;SDS011;10591;52.532;13.348;2023-07-24T08:34:40;5.92;;;3.35;;
20861;SDS011;10591;52.532;13.348;2023-07-24T08:37:15;5.50;;;3.12;;
20861;SDS011;10591;52.532;13.348;2023-07-24T08:39:45;4.97;;;2.98;;
20861;SDS011;10591;52.532;13.348;2023-07-24T08:42:16;3.40;;;2.90;;
20861;SDS011;10591;52.532;13.348;2023-07-24T08:44:51;6.00;;;3.08;;
20861;SDS011;10591;52.532;13.348;2023-07-24T08:47:23;2.85;;;2.52;;
20861;SDS011;10591;52.532;13.348;2023-07-24T08:49:59;3.30;;;2.60;;
20861;SDS011;10591;52.532;13.348;2023-07-24T08:52:33;4.25;;;2.80;;
20861;SDS011;10591;52.532;13.348;2023-07-24T08:55:05;2.58;;;2.37;;
20861;SDS011;10591;52.532;13.348;2023-07-24T08:57:36;3.00;;;2.45;;
20861;SDS011;10591;52.532;13.348;2023-07-24T09:00:08;5.25;;;2.50;;
20861;SDS011;10591;52.532;13.348;2023-07-24T09:02:39;3.00;;;2.42;;
20861;SDS011;10591;52.532;13.348;2023-07-24T09:05:13;2.52;;;2.20;;
20861;SDS011;10591;52.532;13.348;2023-07-24T09:07:47;3.17;;;2.50;;
20861;SDS011;10591;52.532;13.348;2023-07-24T09:10:23;2.77;;;2.27;;
20861;SDS011;10591;52.532;13.348;2023-07-24T09:12:57;2.75;;;2.47;;
20861;SDS011;10591;52.532;13.348;2023-07-24T09:15:28;2.95;;;2.33;;
20861;SDS011;10591;52.532;13.348;2023-07-24T09:17:59;3.27;;;2.60;;
20861;SDS011;10591;52.532;13.348;2023-07-24T09:20:37;4.15;;;2.40;;
20861;SDS011;10591;52.532;13.348;2023-07-24T09:23:12;2.87;;;2.50;;
20861;SDS011;10591;52.532;13.348;2023-07-24T09:25:45;3.55;;;2.25;;
20861;SDS011;10591;52.532;13.348;2023-07-24T09:28:17;3.40;;;2.83;;
20861;SDS011;10591;52.532;13.348;2023-07-24T09:30:52;3.08;;;2.42;;
20861;SDS011;10591;52.532;13.348;2023-07-24T09:33:35;2.80;;;2.60;;
20861;SDS011;10591;52.532;13.348;2023-07-24T09:36:05;3.58;;;2.30;;
20861;SDS011;10591;52.532;13.348;2023-07-24T09:38:41;3.08;;;2.70;;
20861;SDS011;10591;52.532;13.348;2023-07-24T09:41:12;3.58;;;2.47;;
20861;SDS011;10591;52.532;13.348;2023-07-24T09:43:44;4.35;;;2.35;;
20861;SDS011;10591;52.532;13.348;2023-07-24T09:46:15;3.62;;;2.90;;
20861;SDS011;10591;52.532;13.348;2023-07-24T09:48:46;3.20;;;2.90;;
20861;SDS011;10591;52.532;13.348;2023-07-24T09:51:18;3.17;;;2.83;;
20861;SDS011;10591;52.532;13.348;2023-07-24T09:53:55;3.67;;;2.60;;
20861;SDS011;10591;52.532;13.348;2023-07-24T09:56:35;3.00;;;2.62;;
20861;SDS011;10591;52.532;13.348;2023-07-24T09:59:09;4.22;;;2.80;;
20861;SDS011;10591;52.532;13.348;2023-07-24T10:01:42;3.00;;;2.72;;
20861;SDS011;10591;52.532;13.348;2023-07-24T10:04:13;5.53;;;2.92;;
20861;SDS011;10591;52.532;13.348;2023-07-24T10:06:46;2.87;;;2.65;;
20861;SDS011;10591;52.532;13.348;2023-07-24T10:09:20;2.70;;;2.50;;
20861;SDS011;10591;52.532;13.348;2023-07-24T10:11:54;4.92;;;2.98;;
20861;SDS011;10591;52.532;13.348;2023-07-24T10:14:27;2.92;;;2.60;;
20861;SDS011;10591;52.532;13.348;2023-07-24T10:16:59;3.52;;;3.22;;
20861;SDS011;10591;52.532;13.348;2023-07-24T10:19:36;4.45;;;2.85;;
20861;SDS011;10591;52.532;13.348;2023-07-24T10:22:17;3.33;;;2.90;;
20861;SDS011;10591;52.532;13.348;2023-07-24T10:24:51;4.42;;;3.30;;
20861;SDS011;10591;52.532;13.348;2023-07-24T10:27:25;3.20;;;2.62;;
20861;SDS011;10591;52.532;13.348;2023-07-24T10:30:00;5.60;;;3.52;;
20861;SDS011;10591;52.532;13.348;2023-07-24T10:32:49;3.72;;;3.30;;
20861;SDS011;10591;52.532;13.348;2023-07-24T10:35:20;3.50;;;2.72;;
20861;SDS011;10591;52.532;13.348;2023-07-24T10:37:59;4.45;;;3.25;;
20861;SDS011;10591;52.532;13.348;2023-07-24T10:40:32;3.20;;;2.90;;
20861;SDS011;10591;52.532;13.348;2023-07-24T10:43:07;3.40;;;2.87;;
20861;SDS011;10591;52.532;13.348;2023-07-24T10:46:03;4.47;;;3.52;;
20861;SDS011;10591;52.532;13.348;2023-07-24T10:48:19;3.75;;;3.20;;
20861;SDS011;10591;52.532;13.348;2023-07-24T10:50:51;3.65;;;3.35;;
20861;SDS011;10591;52.532;13.348;2023-07-24T10:53:23;4.15;;;3.60;;
20861;SDS011;10591;52.532;13.348;2023-07-24T10:55:56;4.00;;;3.50;;
20861;SDS011;10591;52.532;13.348;2023-07-24T10:58:29;3.87;;;3.42;;
20861;SDS011;10591;52.532;13.348;2023-07-24T11:01:03;4.03;;;3.62;;
20861;SDS011;10591;52.532;13.348;2023-07-24T11:03:39;4.78;;;4.28;;
20861;SDS011;10591;52.532;13.348;2023-07-24T11:06:21;7.08;;;4.50;;
20861;SDS011;10591;52.532;13.348;2023-07-24T11:08:56;4.78;;;4.28;;
20861;SDS011;10591;52.532;13.348;2023-07-24T11:11:31;4.83;;;3.90;;
20861;SDS011;10591;52.532;13.348;2023-07-24T11:14:03;5.15;;;4.00;;
20861;SDS011;10591;52.532;13.348;2023-07-24T11:16:35;5.33;;;4.10;;
20861;SDS011;10591;52.532;13.348;2023-07-24T11:19:09;4.42;;;4.03;;
20861;SDS011;10591;52.532;13.348;2023-07-24T11:21:40;6.50;;;4.33;;
20861;SDS011;10591;52.532;13.348;2023-07-24T11:24:11;4.58;;;4.10;;
20861;SDS011;10591;52.532;13.348;2023-07-24T11:26:42;5.87;;;4.47;;
20861;SDS011;10591;52.532;13.348;2023-07-24T11:29:14;6.80;;;4.28;;
20861;SDS011;10591;52.532;13.348;2023-07-24T11:31:45;6.62;;;4.53;;
20861;SDS011;10591;52.532;13.348;2023-07-24T11:34:16;4.45;;;4.05;;
20861;SDS011;10591;52.532;13.348;2023-07-24T11:36:48;5.92;;;4.12;;
20861;SDS011;10591;52.532;13.348;2023-07-24T11:39:22;4.78;;;4.28;;
20861;SDS011;10591;52.532;13.348;2023-07-24T11:41:55;4.90;;;4.45;;
20861;SDS011;10591;52.532;13.348;2023-07-24T11:44:27;4.50;;;4.10;;
20861;SDS011;10591;52.532;13.348;2023-07-24T11:47:04;5.60;;;4.20;;
20861;SDS011;10591;52.532;13.348;2023-07-24T11:49:37;4.60;;;4.20;;
20861;SDS011;10591;52.532;13.348;2023-07-24T11:52:09;5.10;;;3.90;;
20861;SDS011;10591;52.532;13.348;2023-07-24T11:54:40;6.22;;;4.40;;
20861;SDS011;10591;52.532;13.348;2023-07-24T11:57:16;4.92;;;4.30;;
20861;SDS011;10591;52.532;13.348;2023-07-24T11:59:49;5.17;;;4.08;;
20861;SDS011;10591;52.532;13.348;2023-07-24T12:02:21;6.85;;;4.30;;
20861;SDS011;10591;52.532;13.348;2023-07-24T12:04:56;6.47;;;4.60;;
20861;SDS011;10591;52.532;13.348;2023-07-24T12:07:29;7.15;;;4.30;;
20861;SDS011;10591;52.532;13.348;2023-07-24T12:10:06;5.97;;;4.25;;
20861;SDS011;10591;52.532;13.348;2023-07-24T12:12:42;6.10;;;4.70;;
20861;SDS011;10591;52.532;13.348;2023-07-24T12:15:11;6.35;;;4.65;;
20861;SDS011;10591;52.532;13.348;2023-07-24T12:17:43;5.00;;;3.95;;
20861;SDS011;10591;52.532;13.348;2023-07-24T12:20:18;10.80;;;4.90;;
20861;SDS011;10591;52.532;13.348;2023-07-24T12:22:51;8.18;;;4.55;;
20861;SDS011;10591;52.532;13.348;2023-07-24T12:25:23;7.53;;;5.05;;
20861;SDS011;10591;52.532;13.348;2023-07-24T12:27:54;5.85;;;4.53;;
20861;SDS011;10591;52.532;13.348;2023-07-24T12:30:25;5.72;;;5.12;;
20861;SDS011;10591;52.532;13.348;2023-07-24T12:32:55;6.58;;;5.00;;
20861;SDS011;10591;52.532;13.348;2023-07-24T12:35:28;5.70;;;4.75;;
20861;SDS011;10591;52.532;13.348;2023-07-24T12:37:58;4.72;;;4.22;;
20861;SDS011;10591;52.532;13.348;2023-07-24T12:40:31;7.05;;;4.50;;
20861;SDS011;10591;52.532;13.348;2023-07-24T12:43:02;6.00;;;4.53;;
20861;SDS011;10591;52.532;13.348;2023-07-24T12:45:35;5.75;;;3.72;;
20861;SDS011;10591;52.532;13.348;2023-07-24T12:48:08;4.70;;;4.22;;
20861;SDS011;10591;52.532;13.348;2023-07-24T12:50:45;4.53;;;3.85;;
20861;SDS011;10591;52.532;13.348;2023-07-24T12:53:20;4.67;;;3.90;;
20861;SDS011;10591;52.532;13.348;2023-07-24T12:55:52;4.10;;;3.70;;
20861;SDS011;10591;52.532;13.348;2023-07-24T12:58:23;5.40;;;4.15;;
20861;SDS011;10591;52.532;13.348;2023-07-24T13:00:54;4.80;;;4.35;;
20861;SDS011;10591;52.532;13.348;2023-07-24T13:03:25;5.30;;;4.80;;
20861;SDS011;10591;52.532;13.348;2023-07-24T13:05:56;4.72;;;4.22;;
20861;SDS011;10591;52.532;13.348;2023-07-24T13:08:27;4.40;;;3.67;;
20861;SDS011;10591;52.532;13.348;2023-07-24T13:10:58;5.05;;;3.80;;
20861;SDS011;10591;52.532;13.348;2023-07-24T13:13:29;4.55;;;3.77;;
20861;SDS011;10591;52.532;13.348;2023-07-24T13:16:00;5.30;;;3.70;;
20861;SDS011;10591;52.532;13.348;2023-07-24T13:18:31;4.80;;;3.72;;
20861;SDS011;10591;52.532;13.348;2023-07-24T13:21:02;4.65;;;4.25;;
20861;SDS011;10591;52.532;13.348;2023-07-24T13:23:35;4.85;;;4.03;;
20861;SDS011;10591;52.532;13.348;2023-07-24T13:26:06;5.42;;;3.55;;
20861;SDS011;10591;52.532;13.348;2023-07-24T13:28:39;6.30;;;4.37;;
20861;SDS011;10591;52.532;13.348;2023-07-24T13:31:12;4.87;;;4.37;;
20861;SDS011;10591;52.532;13.348;2023-07-24T13:33:45;7.35;;;4.40;;
20861;SDS011;10591;52.532;13.348;2023-07-24T13:36:16;5.67;;;4.62;;
20861;SDS011;10591;52.532;13.348;2023-07-24T13:38:50;5.40;;;4.40;;
20861;SDS011;10591;52.532;13.348;2023-07-24T13:41:21;4.30;;;3.90;;
20861;SDS011;10591;52.532;13.348;2023-07-24T13:43:53;5.72;;;4.62;;
20861;SDS011;10591;52.532;13.348;2023-07-24T13:46:26;4.62;;;4.17;;
20861;SDS011;10591;52.532;13.348;2023-07-24T13:48:57;4.17;;;3.77;;
20861;SDS011;10591;52.532;13.348;2023-07-24T13:51:29;4.65;;;3.98;;
20861;SDS011;10591;52.532;13.348;2023-07-24T13:54:01;4.17;;;3.77;;
20861;SDS011;10591;52.532;13.348;2023-07-24T13:56:32;5.12;;;3.70;;
20861;SDS011;10591;52.532;13.348;2023-07-24T13:59:05;4.22;;;3.83;;
20861;SDS011;10591;52.532;13.348;2023-07-24T14:01:35;3.90;;;3.50;;
20861;SDS011;10591;52.532;13.348;2023-07-24T14:04:06;4.80;;;3.85;;
20861;SDS011;10591;52.532;13.348;2023-07-24T14:06:38;4.78;;;3.72;;
20861;SDS011;10591;52.532;13.348;2023-07-24T14:09:10;5.28;;;3.58;;
20861;SDS011;10591;52.532;13.348;2023-07-24T14:11:43;5.05;;;3.90;;
20861;SDS011;10591;52.532;13.348;2023-07-24T14:14:15;4.85;;;3.80;;
20861;SDS011;10591;52.532;13.348;2023-07-24T14:16:49;4.67;;;3.37;;
20861;SDS011;10591;52.532;13.348;2023-07-24T14:19:21;3.87;;;3.47;;
20861;SDS011;10591;52.532;13.348;2023-07-24T14:21:55;4.47;;;4.08;;
20861;SDS011;10591;52.532;13.348;2023-07-24T14:24:26;6.35;;;3.60;;
20861;SDS011;10591;52.532;13.348;2023-07-24T14:26:57;4.30;;;3.47;;
20861;SDS011;10591;52.532;13.348;2023-07-24T14:29:27;3.92;;;3.33;;
20861;SDS011;10591;52.532;13.348;2023-07-24T14:31:59;6.53;;;4.55;;
20861;SDS011;10591;52.532;13.348;2023-07-24T14:34:32;6.30;;;4.67;;
20861;SDS011;10591;52.532;13.348;2023-07-24T14:37:04;5.83;;;5.22;;
20861;SDS011;10591;52.532;13.348;2023-07-24T14:39:35;7.55;;;6.85;;
20861;SDS011;10591;52.532;13.348;2023-07-24T14:42:06;7.58;;;5.40;;
20861;SDS011;10591;52.532;13.348;2023-07-24T14:44:37;7.08;;;6.37;;
20861;SDS011;10591;52.532;13.348;2023-07-24T14:47:07;5.60;;;5.08;;
20861;SDS011;10591;52.532;13.348;2023-07-24T14:49:38;5.03;;;4.53;;
20861;SDS011;10591;52.532;13.348;2023-07-24T14:52:10;7.10;;;6.50;;
20861;SDS011;10591;52.532;13.348;2023-07-24T14:54:43;7.97;;;7.17;;
20861;SDS011;10591;52.532;13.348;2023-07-24T14:57:14;6.92;;;6.28;;
20861;SDS011;10591;52.532;13.348;2023-07-24T14:59:46;5.60;;;4.70;;
20861;SDS011;10591;52.532;13.348;2023-07-24T15:02:17;7.05;;;6.35;;
20861;SDS011;10591;52.532;13.348;2023-07-24T15:04:50;7.00;;;6.40;;
20861;SDS011;10591;52.532;13.348;2023-07-24T15:07:20;8.00;;;6.87;;